createdAt,value
2019-04-25T00:05:26.439Z,0.73
2019-04-25T00:12:12.196Z,0.93
2019-04-25T00:18:58.598Z,1.30
2019-04-25T00:25:46.904Z,0.90
2019-04-25T00:32:33.070Z,1.13
2019-04-25T00:39:18.063Z,1.47
2019-04-25T00:46:02.987Z,1.40
2019-04-25T00:52:48.320Z,1.30
2019-04-25T00:59:37.821Z,1.73
2019-04-25T01:06:22.948Z,2.03
2019-04-25T01:13:07.862Z,2.00
2019-04-25T01:19:54.824Z,1.50
2019-04-25T01:26:39.773Z,1.57
2019-04-25T01:33:26.462Z,1.87
2019-04-25T01:40:29.490Z,2.40
2019-04-25T01:47:16.673Z,2.47
2019-04-25T01:54:01.526Z,1.80
2019-04-25T02:00:48.227Z,1.67
2019-04-25T02:07:33.630Z,1.43
2019-04-25T02:14:19.843Z,1.30
2019-04-25T02:21:05.162Z,1.87
2019-04-25T02:27:50.020Z,1.60
2019-04-25T02:34:34.992Z,1.80
2019-04-25T02:41:21.045Z,1.63
2019-04-25T02:48:25.125Z,2.30
2019-04-25T02:55:29.556Z,2.40
2019-04-25T03:01:59.044Z,2.62
2019-04-25T03:08:45.000Z,2.17
2019-04-25T03:15:30.058Z,2.33
2019-04-25T03:22:16.696Z,2.85
2019-04-25T03:29:03.877Z,2.50
2019-04-25T03:35:48.965Z,2.67
2019-04-25T03:42:34.325Z,2.70
2019-04-25T03:49:19.298Z,2.33
2019-04-25T03:56:05.995Z,2.70
2019-04-25T04:02:50.833Z,2.60
2019-04-25T04:09:36.282Z,2.90
2019-04-25T04:16:23.253Z,2.47
2019-04-25T04:23:15.707Z,1.73
2019-04-25T04:30:00.911Z,2.30
2019-04-25T04:36:46.636Z,2.73
2019-04-25T04:43:34.194Z,1.60
2019-04-25T04:50:19.159Z,3.43
2019-04-25T04:57:16.681Z,3.10
2019-04-25T05:03:55.726Z,2.37
2019-04-25T05:10:40.594Z,2.10
2019-04-25T05:17:26.950Z,2.53
2019-04-25T05:24:12.843Z,2.00
2019-04-25T05:31:06.734Z,2.10
2019-04-25T05:37:53.281Z,2.73
2019-04-25T05:44:38.300Z,4.73
2019-04-25T05:51:23.912Z,2.70
2019-04-25T05:58:09.788Z,2.63
2019-04-25T06:04:54.663Z,2.05
2019-04-25T06:11:56.676Z,1.70
2019-04-25T06:18:44.011Z,1.90
2019-04-25T06:25:34.772Z,1.60
2019-04-25T06:32:17.699Z,1.50
2019-04-25T06:39:03.994Z,2.12
2019-04-25T06:45:56.408Z,3.20
2019-04-25T06:52:41.412Z,2.25
2019-04-25T06:59:27.537Z,3.45
2019-04-25T07:06:14.579Z,3.20
2019-04-25T07:13:00.383Z,2.40
2019-04-25T07:19:45.326Z,2.85
2019-04-25T07:26:40.939Z,2.80
2019-04-25T07:33:28.192Z,2.17
2019-04-25T07:40:15.212Z,1.00
2019-04-25T07:47:00.142Z,0.95
2019-04-25T07:53:45.000Z,0.75
2019-04-25T08:00:30.231Z,1.15
2019-04-25T08:07:16.030Z,1.13
2019-04-25T08:14:09.390Z,1.10
2019-04-25T08:20:54.495Z,1.42
2019-04-25T08:27:39.453Z,0.80
2019-04-25T08:34:24.466Z,0.90
2019-04-25T08:41:09.407Z,1.20
2019-04-25T08:47:54.280Z,1.72
2019-04-25T08:54:45.661Z,1.05
2019-04-25T09:01:45.794Z,1.60
2019-04-25T09:08:30.823Z,1.85
2019-04-25T09:15:15.829Z,1.42
2019-04-25T09:22:00.938Z,1.10
2019-04-25T09:28:46.676Z,0.88
2019-04-25T09:35:33.498Z,1.15
2019-04-25T09:42:18.587Z,1.03
2019-04-25T09:49:11.138Z,0.95
2019-04-25T09:56:04.143Z,0.90
2019-04-25T10:02:50.659Z,1.15
2019-04-25T10:09:35.735Z,1.20
2019-04-25T10:16:22.115Z,1.00
2019-04-25T10:23:07.672Z,0.90
2019-04-25T10:29:54.498Z,1.00
2019-04-25T10:36:41.259Z,1.30
2019-04-25T10:43:26.104Z,1.10
2019-04-25T10:50:11.367Z,1.12
2019-04-25T10:57:15.756Z,1.07
2019-04-25T11:04:04.900Z,1.05
2019-04-25T11:10:50.026Z,1.15
2019-04-25T11:17:34.971Z,1.32
2019-04-25T11:24:20.039Z,0.90
2019-04-25T11:31:06.510Z,1.05
2019-04-25T11:37:53.167Z,1.50
2019-04-25T11:44:38.561Z,1.00
2019-04-25T11:51:24.011Z,1.12
2019-04-25T11:58:08.994Z,0.68
2019-04-25T12:04:54.954Z,1.12
2019-04-25T12:11:43.536Z,1.55
2019-04-25T12:18:28.323Z,1.32
2019-04-25T12:25:15.097Z,0.80
2019-04-25T12:32:04.120Z,0.98
2019-04-25T12:38:49.107Z,0.98
2019-04-25T12:45:43.306Z,0.90
2019-04-25T12:52:30.434Z,1.05
2019-04-25T12:59:15.139Z,0.65
2019-04-25T13:06:00.069Z,0.80
2019-04-25T13:12:46.375Z,0.70
2019-04-25T13:19:31.339Z,1.02
2019-04-25T13:26:17.975Z,0.62
2019-04-25T13:33:06.967Z,0.88
2019-04-25T13:39:54.104Z,0.50
2019-04-25T13:46:40.594Z,0.90
2019-04-25T13:53:25.763Z,1.00
2019-04-25T14:00:11.896Z,1.52
2019-04-25T14:06:58.074Z,0.90
2019-04-25T14:13:44.031Z,0.72
2019-04-25T14:20:40.516Z,0.70
2019-04-25T14:27:26.297Z,0.63
2019-04-25T14:34:13.306Z,1.00
2019-04-25T14:41:00.309Z,1.30
2019-04-25T14:47:46.230Z,0.93
2019-04-25T14:54:33.576Z,0.90
2019-04-25T15:01:21.605Z,0.93
2019-04-25T15:08:07.683Z,0.70
2019-04-25T15:14:52.535Z,0.82
2019-04-25T15:21:37.470Z,1.53
2019-04-25T15:28:22.390Z,0.87
2019-04-25T15:35:09.029Z,1.02
2019-04-25T15:41:55.710Z,0.90
2019-04-25T15:48:41.247Z,0.85
2019-04-25T15:55:26.256Z,1.30
2019-04-25T16:02:13.893Z,1.17
2019-04-25T16:08:58.904Z,1.10
2019-04-25T16:15:43.870Z,1.20
2019-04-25T16:22:29.116Z,1.00
2019-04-25T16:29:14.510Z,1.37
2019-04-25T16:35:59.520Z,2.15
2019-04-25T16:42:44.519Z,1.40
2019-04-25T16:49:29.984Z,1.25
2019-04-25T16:56:15.059Z,1.17
2019-04-25T17:03:00.072Z,1.05
2019-04-25T17:09:46.744Z,1.37
2019-04-25T17:16:33.447Z,1.50
2019-04-25T17:23:18.745Z,1.12
2019-04-25T17:30:04.952Z,1.82
2019-04-25T17:37:09.067Z,1.20
2019-04-25T17:43:53.943Z,1.20
2019-04-25T17:50:39.673Z,1.50
2019-04-25T17:57:26.170Z,1.65
2019-04-25T18:04:11.188Z,2.67
2019-04-25T18:10:56.123Z,2.42
2019-04-25T18:17:41.071Z,2.83
2019-04-25T18:24:39.639Z,2.75
2019-04-25T18:31:24.643Z,1.60
2019-04-25T18:38:26.090Z,1.42
2019-04-25T18:45:12.918Z,1.50
2019-04-25T18:52:00.480Z,1.50
2019-04-25T18:59:02.471Z,1.30
2019-04-25T19:05:49.075Z,1.30
2019-04-25T19:12:34.024Z,1.20
2019-04-25T19:19:19.874Z,1.13
2019-04-25T19:26:04.995Z,1.07
2019-04-25T19:32:51.552Z,1.27
2019-04-25T19:39:39.221Z,1.30
2019-04-25T19:46:28.311Z,0.97
2019-04-25T19:53:13.191Z,0.73
2019-04-25T19:59:58.051Z,0.90
2019-04-25T20:07:02.331Z,1.10
2019-04-25T20:13:47.566Z,1.10
2019-04-25T20:20:32.527Z,1.10
2019-04-25T20:27:17.827Z,1.10
2019-04-25T20:34:06.166Z,0.83
2019-04-25T20:40:50.311Z,0.77
2019-04-25T20:47:35.315Z,0.73
2019-04-25T20:54:20.209Z,0.83
2019-04-25T21:01:05.254Z,1.10
2019-04-25T21:07:51.236Z,0.70
2019-04-25T21:14:50.701Z,0.73
2019-04-25T21:21:35.642Z,1.20
2019-04-25T21:28:20.590Z,1.37
2019-04-25T21:35:06.561Z,1.00
2019-04-25T21:42:12.407Z,1.43
2019-04-25T21:48:57.450Z,1.13
2019-04-25T21:55:42.312Z,1.00
2019-04-25T22:02:28.248Z,1.10
2019-04-25T22:09:17.490Z,1.40
2019-04-25T22:16:04.245Z,1.20
2019-04-25T22:22:49.462Z,1.13
2019-04-25T22:29:36.088Z,1.30
2019-04-25T22:36:28.303Z,1.13
2019-04-25T22:43:13.600Z,1.13
2019-04-25T22:49:58.962Z,1.20
2019-04-25T22:56:45.290Z,1.30
2019-04-25T23:03:32.159Z,1.43
2019-04-25T23:10:17.191Z,1.57
2019-04-25T23:17:03.596Z,1.40
2019-04-25T23:23:48.535Z,1.57
2019-04-25T23:30:40.856Z,1.50
2019-04-25T23:37:26.043Z,1.40
2019-04-25T23:44:12.086Z,1.50
2019-04-25T23:50:57.367Z,1.80
2019-04-25T23:57:43.477Z,1.60
